Airfield :
LOGIN :

Register | Disclaimer

   EN    FR    IT 

 










Legend :    VFR   Marginal VFR   IFR   Intensive IFR   Very Intensive IFR
Visi :
Ceiling :
>= 8 km
>= 3000ft
5 to 8 km
1000 to 3000 ft
1500m to 5 km
500 to 1000 ft
800 to 1500m
200 to 500 ft
< 800m
< 200 ft
Symbols :   Thunderstorms  Fog  Heavy snow  Heavy precipitations  Wind > 20 kt
SIGMETs :     Misc.  Thunderstorms  Icing  Turbulence  Mountain Waves  Volcanic Ashes







- Airport Elevation : 1766 ft


ETHL - Laupheim AB

CURRENT METAR :
  • 171420Z 02004KT 9999 BKN050 FEW060CB 25/14 Q1017 RETSRA BLACKBLU

EXPIRED METARs :
  • 171320Z 27006KT 9999 VCTS BKN050 SCT060CB 24/12 Q1016 BLACKBLU
  • 171220Z 23003KT 9999 VCTS BKN060 FEW070CB 29/10 Q1016 BLACKBLU
  • 171137Z 11003KT 9999 VCTS SCT050 FEW060CB 28/10 Q1016 BLACKBLU+

TAF AMD TAF ETHL
Valid from the 17 at 08:00 until the 17 at 17:00 UTC


170904Z 1708/1717 25007KT 9999 NSW FEW050 SCT300 CANCEL 1000
No reported NOTAMs for that airfield.



MET'MAP, your aeronautical weather chart ! - Copyright ORBIFLY December 2007 - Disclaimer

ORBIFLY MET'MAP TEAM :

Programming & Development : Alexandra Zaïnal
Concept & Development : Baudouin d'Aumeries
Co-Development & Prog : Marc-Olivier Méhu
Technical & hardware support : Manuel Goepfert

Contact : metmap@orbifly.com




SOURCES & CREDITS :

   NOAA